createdAt,value
2022-09-28T00:04:16.273Z,944.96
2022-09-28T00:09:48.142Z,944.94
2022-09-28T00:15:19.997Z,944.88
2022-09-28T00:20:51.986Z,944.76
2022-09-28T00:26:23.897Z,944.68
2022-09-28T00:31:55.471Z,944.57
2022-09-28T00:37:27.662Z,944.45
2022-09-28T00:42:59.302Z,944.29
2022-09-28T00:54:00.502Z,944.10
2022-09-28T00:59:32.168Z,944.02
2022-09-28T01:10:33.590Z,943.86
2022-09-28T01:21:35.067Z,943.72
2022-09-28T01:27:06.708Z,943.59
2022-09-28T01:32:38.462Z,943.47
2022-09-28T01:38:10.473Z,943.41
2022-09-28T01:49:11.495Z,943.21
2022-09-28T01:54:43.289Z,943.10
2022-09-28T02:05:44.707Z,942.84
2022-09-28T02:13:37.693Z,942.39
2022-09-28T02:24:39.012Z,942.29
2022-09-28T02:30:10.805Z,942.21
2022-09-28T02:35:42.757Z,942.12
2022-09-28T02:41:14.538Z,942.02
2022-09-28T02:46:46.345Z,941.90
2022-09-28T02:52:18.310Z,941.84
2022-09-28T02:57:51.525Z,941.76
2022-09-28T03:03:23.147Z,941.68
2022-09-28T03:08:54.648Z,941.61
2022-09-28T03:14:26.319Z,941.55
2022-09-28T03:19:57.852Z,941.51
2022-09-28T03:25:29.652Z,941.49
2022-09-28T03:31:01.449Z,941.47
2022-09-28T03:36:33.338Z,941.41
2022-09-28T03:42:05.306Z,941.35
2022-09-28T03:47:36.954Z,941.31
2022-09-28T03:53:08.338Z,941.27
2022-09-28T03:58:39.848Z,941.21
2022-09-28T04:04:11.515Z,941.17
2022-09-28T04:09:43.577Z,941.15
2022-09-28T04:15:15.172Z,941.13
2022-09-28T04:20:46.707Z,941.02
2022-09-28T04:26:18.311Z,940.96
2022-09-28T04:31:50.175Z,940.94
2022-09-28T04:37:21.906Z,940.92
2022-09-28T04:42:53.811Z,940.88
2022-09-28T04:48:25.575Z,940.84
2022-09-28T04:53:57.255Z,940.84
2022-09-28T05:05:00.761Z,940.94
2022-09-28T05:10:32.048Z,940.92
2022-09-28T05:16:05.577Z,940.86
2022-09-28T05:21:35.031Z,940.84
2022-09-28T05:27:06.550Z,940.80
2022-09-28T05:32:37.891Z,940.72
2022-09-28T05:38:09.647Z,940.61
2022-09-28T05:43:41.400Z,940.49
2022-09-28T05:49:12.734Z,940.37
2022-09-28T05:54:44.064Z,940.27
2022-09-28T06:00:16.223Z,940.25
2022-09-28T06:05:47.485Z,940.18
2022-09-28T06:11:19.053Z,940.08
2022-09-28T06:16:50.798Z,940.04
2022-09-28T06:22:22.027Z,940.10
2022-09-28T06:27:53.630Z,940.12
2022-09-28T06:33:25.125Z,940.12
2022-09-28T06:38:56.957Z,940.12
2022-09-28T06:44:28.736Z,940.10
2022-09-28T06:50:00.054Z,940.08
2022-09-28T06:55:32.003Z,940.08
2022-09-28T07:01:03.879Z,940.08
2022-09-28T07:06:35.613Z,940.10
2022-09-28T07:12:07.386Z,940.12
2022-09-28T07:17:52.488Z,940.14
2022-09-28T07:23:18.960Z,940.20
2022-09-28T07:28:42.312Z,940.27
2022-09-28T07:34:14.148Z,940.29
2022-09-28T07:39:46.221Z,940.35
2022-09-28T07:45:17.762Z,940.37
2022-09-28T07:50:49.524Z,940.41
2022-09-28T07:56:21.549Z,940.47
2022-09-28T08:01:53.314Z,940.49
2022-09-28T08:07:25.111Z,940.51
2022-09-28T08:12:59.280Z,940.57
2022-09-28T08:18:28.753Z,940.63
2022-09-28T08:24:00.557Z,940.68
2022-09-28T08:29:32.128Z,940.68
2022-09-28T08:35:03.822Z,940.74
2022-09-28T08:40:35.878Z,940.74
2022-09-28T08:46:07.437Z,940.76
2022-09-28T08:51:39.095Z,940.86
2022-09-28T08:57:10.822Z,941.19
2022-09-28T09:02:42.650Z,941.53
2022-09-28T09:08:14.337Z,941.74
2022-09-28T09:13:46.161Z,941.92
2022-09-28T09:24:49.623Z,942.04
2022-09-28T09:30:21.532Z,942.00
2022-09-28T09:35:53.307Z,941.96
2022-09-28T09:41:25.210Z,941.98
2022-09-28T09:46:56.946Z,942.02
2022-09-28T09:52:28.802Z,942.08
2022-09-28T09:54:52.439Z,942.29
2022-09-28T10:00:24.183Z,942.25
2022-09-28T10:05:55.572Z,942.25
2022-09-28T10:11:27.032Z,942.21
2022-09-28T10:16:58.979Z,942.27
2022-09-28T10:22:30.468Z,942.29
2022-09-28T10:28:02.165Z,942.33
2022-09-28T10:33:33.784Z,942.35
2022-09-28T10:39:05.672Z,942.39
2022-09-28T10:44:37.469Z,942.41
2022-09-28T10:50:09.335Z,942.47
2022-09-28T10:55:41.215Z,942.55
2022-09-28T11:01:13.082Z,942.55
2022-09-28T11:06:44.695Z,942.55
2022-09-28T11:12:16.488Z,942.51
2022-09-28T11:17:48.123Z,942.51
2022-09-28T11:23:20.056Z,942.55
2022-09-28T11:28:51.777Z,942.61
2022-09-28T11:34:31.364Z,942.63
2022-09-28T11:39:55.315Z,942.67
2022-09-28T11:45:26.655Z,942.65
2022-09-28T11:50:58.057Z,942.65
2022-09-28T11:56:29.906Z,942.67
2022-09-28T12:07:31.237Z,942.82
2022-09-28T12:15:25.088Z,942.84
2022-09-28T12:20:57.553Z,942.82
2022-09-28T12:26:28.677Z,942.84
2022-09-28T12:32:00.352Z,942.84
2022-09-28T12:39:58.137Z,942.92
2022-09-28T12:45:24.449Z,942.92
2022-09-28T12:50:57.857Z,942.92
2022-09-28T12:56:28.107Z,942.92
2022-09-28T13:01:59.963Z,942.92
2022-09-28T13:07:31.747Z,942.92
2022-09-28T13:13:03.591Z,942.92
2022-09-28T13:18:35.380Z,942.94
2022-09-28T13:24:27.789Z,942.94
2022-09-28T13:35:10.412Z,942.86
2022-09-28T13:40:42.261Z,942.80
2022-09-28T13:46:14.039Z,942.76
2022-09-28T13:51:45.810Z,942.80
2022-09-28T13:57:17.793Z,942.88
2022-09-28T14:02:49.620Z,942.84
2022-09-28T14:08:21.153Z,942.88
2022-09-28T14:13:52.609Z,942.88
2022-09-28T14:19:24.479Z,942.90
2022-09-28T14:24:56.309Z,942.90
2022-09-28T14:30:28.089Z,942.88
2022-09-28T14:35:59.594Z,942.86
2022-09-28T14:41:31.204Z,942.82
2022-09-28T14:47:02.930Z,942.84
2022-09-28T14:52:34.541Z,942.86
2022-09-28T14:58:06.697Z,942.88
2022-09-28T15:03:38.708Z,942.88
2022-09-28T15:09:10.165Z,942.88
2022-09-28T15:14:41.767Z,942.88
2022-09-28T15:20:13.308Z,942.86
2022-09-28T15:25:45.712Z,942.88
2022-09-28T15:31:17.541Z,942.88
2022-09-28T15:36:49.189Z,942.94
2022-09-28T15:42:20.855Z,942.98
2022-09-28T15:47:52.803Z,943.04
2022-09-28T15:58:53.689Z,943.14
2022-09-28T16:04:25.276Z,943.20
2022-09-28T16:15:26.739Z,943.29
2022-09-28T16:20:58.622Z,943.33
2022-09-28T16:26:30.228Z,943.39
2022-09-28T16:32:02.410Z,943.41
2022-09-28T16:37:34.166Z,943.39
2022-09-28T16:43:06.186Z,943.35
2022-09-28T16:48:38.270Z,943.25
2022-09-28T16:54:09.710Z,943.23
2022-09-28T16:59:41.557Z,943.21
2022-09-28T17:05:13.953Z,943.23
2022-09-28T17:11:09.802Z,943.25
2022-09-28T17:16:17.735Z,943.27
2022-09-28T17:21:49.521Z,943.31
2022-09-28T17:27:21.160Z,943.33
2022-09-28T17:32:52.874Z,943.35
2022-09-28T17:38:24.670Z,943.39
2022-09-28T17:46:17.305Z,943.43
2022-09-28T17:51:49.125Z,943.41
2022-09-28T17:57:20.553Z,943.45
2022-09-28T18:02:52.248Z,943.41
2022-09-28T18:08:24.294Z,943.39
2022-09-28T18:13:55.902Z,943.43
2022-09-28T18:19:31.925Z,943.47
2022-09-28T18:24:59.490Z,943.51
2022-09-28T18:30:31.219Z,943.59
2022-09-28T18:41:32.319Z,943.74
2022-09-28T18:47:03.921Z,943.84
2022-09-28T18:58:04.612Z,944.00
2022-09-28T19:03:36.461Z,944.06
2022-09-28T19:14:37.502Z,944.16
2022-09-28T19:20:09.221Z,944.14
2022-09-28T19:31:10.411Z,944.27
2022-09-28T19:36:41.696Z,944.31
2022-09-28T19:42:13.615Z,944.39
2022-09-28T19:47:45.513Z,944.47
2022-09-28T19:58:46.918Z,944.57
2022-09-28T20:04:18.648Z,944.64
2022-09-28T20:09:50.169Z,944.72
2022-09-28T20:15:22.359Z,944.80
2022-09-28T20:20:53.952Z,944.84
2022-09-28T20:39:45.395Z,944.92
2022-09-28T20:45:17.267Z,944.92
2022-09-28T20:50:48.950Z,944.88
2022-09-28T20:56:21.412Z,944.90
2022-09-28T21:01:53.238Z,944.90
2022-09-28T21:07:25.052Z,944.94
2022-09-28T21:12:57.079Z,944.98
2022-09-28T21:18:28.786Z,945.00
2022-09-28T21:24:00.516Z,945.02
2022-09-28T21:29:32.619Z,945.04
2022-09-28T21:40:36.017Z,945.12
2022-09-28T21:46:07.792Z,945.12
2022-09-28T21:51:39.757Z,945.14
2022-09-28T22:02:40.788Z,945.10
2022-09-28T22:13:44.443Z,945.12
2022-09-28T22:19:16.330Z,945.18
2022-09-28T22:30:17.240Z,945.19
2022-09-28T22:35:48.806Z,945.18
2022-09-28T22:41:20.391Z,945.23
2022-09-28T22:46:52.207Z,945.23
2022-09-28T23:03:25.333Z,945.23
2022-09-28T23:08:57.201Z,945.25
2022-09-28T23:14:28.867Z,945.21
2022-09-28T23:20:01.093Z,945.21
2022-09-28T23:25:32.608Z,945.18
2022-09-28T23:31:03.958Z,945.14
2022-09-28T23:36:35.332Z,945.10
2022-09-28T23:42:07.055Z,945.02
2022-09-28T23:47:38.926Z,945.00
2022-09-28T23:53:10.830Z,944.98
2022-09-28T23:58:42.595Z,944.96
